Stations météo

réclame
Mon MeteoGroup
Tyndrum, Grande-Bretagne (99020): Température de l'air & dewpoint: 14.06.2018 16:00:00 - 20.06.2018 16:00:00 (BST)Tyndrum, Grande-Bretagne (99020): Quantités de précipitations: 14.06.2018 16:00:00 - 20.06.2018 16:00:00 (BST)
Date & Time tt [°C] td [°C] rr [mm]
20.06.2018 16:00:00 12,7 5,6 0,0
20.06.2018 15:00:00 12,9 4,2 0,0
20.06.2018 14:00:00 13,5 5,8 0,0
20.06.2018 13:00:00 14,8 7,0 0,0
20.06.2018 12:00:00 13,1 7,6 0,0
20.06.2018 11:00:00 12,1 7,6 0,0
20.06.2018 10:00:00 10,6 7,8 0,0
20.06.2018 09:00:00 10,7 8,7 0,0
20.06.2018 08:00:00 9,4 8,6 0,0
20.06.2018 07:00:00 8,9 8,6 0,4
20.06.2018 06:00:00 8,5 8,2 4,4
20.06.2018 05:00:00 8,4 8,0 2,0
20.06.2018 04:00:00 8,4 7,9 1,4
20.06.2018 03:00:00 8,5 7,7 1,8
20.06.2018 02:00:00 8,9 7,7 1,8
20.06.2018 01:00:00 8,9 7,6 1,8
20.06.2018 00:00:00 8,6 7,4 2,2
19.06.2018 23:00:00 8,6 7,3 0,2
19.06.2018 22:00:00 9,0 8,1 0,2
19.06.2018 21:00:00 9,5 8,5 1,0
19.06.2018 20:00:00 10,0 8,1 1,2
19.06.2018 19:00:00 10,7 7,2 0,0
19.06.2018 18:00:00 10,9 7,4 0,0
19.06.2018 17:00:00 11,4 7,3 0,2
19.06.2018 16:00:00 13,4 4,8 0,0
19.06.2018 15:00:00 13,9 6,3 0,0
19.06.2018 14:00:00 14,1 5,0 0,0
19.06.2018 13:00:00 12,5 5,5 0,0
19.06.2018 12:00:00 12,0 4,9 0,0
19.06.2018 11:00:00 11,6 6,5 0,0
19.06.2018 10:00:00 11,8 7,3 0,0
19.06.2018 09:00:00 10,5 5,9 0,0
19.06.2018 08:00:00 10,0 6,4 0,0
19.06.2018 07:00:00 8,8 5,7 0,0
19.06.2018 06:00:00 8,6 6,6 0,0
19.06.2018 05:00:00 8,2 6,4 0,6
19.06.2018 04:00:00 8,4 6,0 0,0
19.06.2018 03:00:00 8,7 6,4 1,6
19.06.2018 02:00:00 9,1 5,5 0,0
19.06.2018 01:00:00 9,6 5,5 -
19.06.2018 00:00:00 9,4 5,5 0,0
18.06.2018 23:00:00 9,3 5,7 0,2
18.06.2018 22:00:00 9,4 6,0 0,2
18.06.2018 21:00:00 9,9 5,8 0,2
18.06.2018 20:00:00 9,8 7,4 0,2
18.06.2018 19:00:00 10,6 7,5 0,0
18.06.2018 18:00:00 13,1 6,5 0,0
18.06.2018 17:00:00 14,6 6,9 0,0
18.06.2018 16:00:00 14,3 5,9 0,0
18.06.2018 15:00:00 13,6 6,6 0,0
18.06.2018 14:00:00 13,0 5,7 0,0
18.06.2018 13:00:00 13,6 7,2 0,0
18.06.2018 12:00:00 12,2 6,5 0,0
18.06.2018 11:00:00 11,7 6,1 0,0
18.06.2018 10:00:00 11,6 6,4 0,0
18.06.2018 09:00:00 11,1 6,4 0,0
18.06.2018 08:00:00 10,4 7,3 0,0
18.06.2018 07:00:00 10,3 7,0 0,0
18.06.2018 06:00:00 9,8 7,4 0,2
18.06.2018 05:00:00 10,0 7,0 0,0
18.06.2018 04:00:00 10,1 7,5 0,2
18.06.2018 03:00:00 10,1 8,7 0,6
18.06.2018 02:00:00 10,2 8,4 0,0
18.06.2018 01:00:00 11,0 9,0 0,2
18.06.2018 00:00:00 11,3 9,9 0,2
17.06.2018 23:00:00 12,5 10,6 0,4
17.06.2018 22:00:00 12,4 11,2 0,0
17.06.2018 21:00:00 12,4 11,4 0,4
17.06.2018 20:00:00 12,1 11,3 0,6
17.06.2018 19:00:00 12,0 11,2 0,8
17.06.2018 18:00:00 12,0 10,8 0,6
17.06.2018 17:00:00 12,0 9,9 0,0
17.06.2018 16:00:00 12,8 8,7 0,0
17.06.2018 15:00:00 14,0 8,8 0,0
17.06.2018 14:00:00 13,6 9,7 0,0
17.06.2018 13:00:00 13,4 10,1 0,6
17.06.2018 12:00:00 11,3 10,1 0,8
17.06.2018 11:00:00 11,8 10,1 0,0
17.06.2018 10:00:00 10,6 9,0 0,0
17.06.2018 09:00:00 10,2 9,6 0,0
17.06.2018 08:00:00 8,7 8,6 0,2
17.06.2018 07:00:00 7,0 6,9 0,0
17.06.2018 06:00:00 5,8 5,6 0,0
17.06.2018 05:00:00 4,4 4,1 0,0
17.06.2018 04:00:00 4,7 4,2 0,0
17.06.2018 03:00:00 5,7 5,1 0,0
17.06.2018 02:00:00 7,5 6,9 0,0
17.06.2018 01:00:00 8,8 7,8 0,0
17.06.2018 00:00:00 9,1 7,5 0,0
16.06.2018 23:00:00 8,9 7,5 0,0
16.06.2018 22:00:00 10,0 7,9 0,0
16.06.2018 21:00:00 10,0 8,0 0,2
16.06.2018 20:00:00 11,0 7,7 0,0
16.06.2018 19:00:00 11,9 7,8 0,0
16.06.2018 18:00:00 14,0 7,2 0,0
16.06.2018 17:00:00 13,2 7,8 0,0
16.06.2018 16:00:00 12,1 8,4 0,0
16.06.2018 15:00:00 10,6 9,5 0,2
16.06.2018 14:00:00 11,0 8,9 6,2
16.06.2018 13:00:00 11,6 10,4 0,8
16.06.2018 12:00:00 11,2 10,2 0,6
16.06.2018 11:00:00 10,8 9,4 1,8
16.06.2018 10:00:00 10,5 9,5 1,6
16.06.2018 09:00:00 10,4 9,3 1,8
16.06.2018 08:00:00 10,6 9,2 0,2
16.06.2018 07:00:00 10,1 8,8 0,2
16.06.2018 06:00:00 10,5 8,7 0,0
16.06.2018 05:00:00 9,3 9,0 0,0
16.06.2018 04:00:00 9,1 8,8 0,0
16.06.2018 03:00:00 9,0 8,6 0,0
16.06.2018 02:00:00 8,8 8,1 0,0
16.06.2018 01:00:00 9,6 8,7 0,0
16.06.2018 00:00:00 9,6 8,4 0,0
15.06.2018 23:00:00 9,6 8,3 0,0
15.06.2018 22:00:00 9,7 8,5 0,0
15.06.2018 21:00:00 10,2 7,6 0,2
15.06.2018 20:00:00 10,7 7,8 0,0
15.06.2018 19:00:00 11,0 8,2 0,0
15.06.2018 18:00:00 11,2 8,5 0,2
15.06.2018 17:00:00 11,5 9,1 0,8
15.06.2018 16:00:00 11,6 8,5 0,0
15.06.2018 15:00:00 11,2 8,6 0,4
15.06.2018 14:00:00 11,9 9,5 0,4
15.06.2018 13:00:00 10,0 7,8 0,8
15.06.2018 12:00:00 10,9 8,2 0,6
15.06.2018 11:00:00 11,8 7,4 0,0
15.06.2018 10:00:00 11,2 7,3 0,0
15.06.2018 09:00:00 10,8 7,1 0,2
15.06.2018 08:00:00 10,5 7,3 0,6
15.06.2018 07:00:00 9,2 6,9 0,2
15.06.2018 06:00:00 9,4 6,8 0,0
15.06.2018 05:00:00 9,2 6,7 0,2
15.06.2018 04:00:00 9,0 7,4 0,4
15.06.2018 03:00:00 9,3 6,8 0,6
15.06.2018 02:00:00 9,5 7,3 0,2
15.06.2018 01:00:00 9,3 6,9 0,4
15.06.2018 00:00:00 9,5 7,2 0,4
14.06.2018 23:00:00 10,0 6,4 0,0
14.06.2018 22:00:00 9,6 6,4 0,0
14.06.2018 21:00:00 10,0 6,3 0,0
14.06.2018 20:00:00 10,6 6,2 0,0
14.06.2018 19:00:00 10,8 6,5 0,0
14.06.2018 18:00:00 12,2 6,6 0,0
14.06.2018 17:00:00 11,1 6,8 0,4
14.06.2018 16:00:00 10,2 8,1 2,0

tt = Température de l'air
td = dewpoint
rr = Quantités de précipitations

stations d'obs. à proximité